createdAt,value
2017-01-16T00:00:56.288Z,0
2017-01-16T00:01:56.671Z,0
2017-01-16T00:02:56.255Z,0
2017-01-16T00:03:56.232Z,0
2017-01-16T00:04:56.215Z,0
2017-01-16T00:05:56.193Z,0
2017-01-16T00:06:56.175Z,0
2017-01-16T00:07:56.154Z,0
2017-01-16T00:08:56.140Z,0
2017-01-16T00:09:56.111Z,0
2017-01-16T00:10:56.091Z,0
2017-01-16T00:11:56.076Z,0
2017-01-16T00:12:56.054Z,0
2017-01-16T00:13:56.041Z,0
2017-01-16T00:14:56.016Z,0
2017-01-16T00:15:55.996Z,0
2017-01-16T00:16:55.978Z,0
2017-01-16T00:17:55.953Z,0
2017-01-16T00:18:55.939Z,0
2017-01-16T00:19:55.917Z,0
2017-01-16T00:20:55.894Z,0
2017-01-16T00:21:55.884Z,0
2017-01-16T00:22:55.864Z,0
2017-01-16T00:23:55.837Z,0
2017-01-16T00:24:55.819Z,0
2017-01-16T00:25:55.801Z,0
2017-01-16T00:26:55.780Z,0
2017-01-16T00:27:55.758Z,0
2017-01-16T00:28:55.743Z,0
2017-01-16T00:29:55.734Z,0
2017-01-16T00:30:55.701Z,0
2017-01-16T00:31:55.685Z,0
2017-01-16T00:32:55.659Z,0
2017-01-16T00:33:55.644Z,0
2017-01-16T00:34:55.621Z,0
2017-01-16T00:35:55.602Z,0
2017-01-16T00:36:55.583Z,0
2017-01-16T00:37:55.563Z,0
2017-01-16T00:38:55.540Z,0
2017-01-16T00:39:55.526Z,0
2017-01-16T00:40:55.504Z,0
2017-01-16T00:41:55.484Z,0
2017-01-16T00:42:55.464Z,0
2017-01-16T00:43:55.443Z,0
2017-01-16T00:44:55.423Z,0
2017-01-16T00:45:55.401Z,0
2017-01-16T00:46:55.385Z,0
2017-01-16T00:47:55.368Z,0
2017-01-16T00:48:55.344Z,0
2017-01-16T00:49:55.328Z,0
2017-01-16T00:50:55.308Z,0
2017-01-16T00:51:55.284Z,0
2017-01-16T00:52:55.265Z,0
2017-01-16T00:53:55.252Z,0
2017-01-16T00:54:55.228Z,0
2017-01-16T00:55:55.205Z,0
2017-01-16T00:56:55.191Z,0
2017-01-16T00:57:55.179Z,0
2017-01-16T00:58:55.145Z,0
2017-01-16T00:59:55.133Z,0
2017-01-16T01:00:55.105Z,0
2017-01-16T01:01:55.092Z,0
2017-01-16T01:02:55.071Z,0
2017-01-16T01:03:55.049Z,0
2017-01-16T01:04:55.029Z,0
2017-01-16T01:05:55.007Z,0
2017-01-16T01:06:54.991Z,0
2017-01-16T01:07:54.974Z,0
2017-01-16T01:08:54.960Z,0
2017-01-16T01:09:54.931Z,0
2017-01-16T01:10:54.906Z,0
2017-01-16T01:11:54.893Z,0
2017-01-16T01:12:54.868Z,0
2017-01-16T01:13:54.854Z,0
2017-01-16T01:14:54.831Z,0
2017-01-16T01:15:54.817Z,0
2017-01-16T01:16:54.822Z,0
2017-01-16T01:17:55.168Z,0
2017-01-16T01:18:54.750Z,0
2017-01-16T01:19:54.734Z,0
2017-01-16T01:20:54.712Z,0
2017-01-16T01:21:54.693Z,0
2017-01-16T01:22:54.671Z,0
2017-01-16T01:23:54.652Z,0
2017-01-16T01:24:54.639Z,0
2017-01-16T01:25:54.614Z,0
2017-01-16T01:26:54.593Z,0
2017-01-16T01:27:54.575Z,0
2017-01-16T01:28:54.555Z,0
2017-01-16T01:29:54.529Z,0
2017-01-16T01:30:54.521Z,0
2017-01-16T01:31:54.495Z,0
2017-01-16T01:32:54.474Z,0
2017-01-16T01:33:54.453Z,0
2017-01-16T01:34:54.435Z,0
2017-01-16T01:35:54.414Z,0
2017-01-16T01:36:54.397Z,0
2017-01-16T01:37:54.370Z,0
2017-01-16T01:38:54.354Z,0
2017-01-16T01:39:54.331Z,0
2017-01-16T01:40:54.316Z,0
2017-01-16T01:41:54.293Z,0
2017-01-16T01:42:54.276Z,0
2017-01-16T01:43:54.257Z,0
2017-01-16T01:44:54.239Z,0
2017-01-16T01:45:54.217Z,0
2017-01-16T01:46:54.203Z,0
2017-01-16T01:47:54.177Z,0
2017-01-16T01:48:54.159Z,0
2017-01-16T01:49:54.163Z,0
2017-01-16T01:50:54.118Z,0
2017-01-16T01:51:54.110Z,0
2017-01-16T01:52:54.079Z,0
2017-01-16T01:53:54.058Z,0
2017-01-16T01:54:54.043Z,0
2017-01-16T01:55:54.022Z,0
2017-01-16T01:56:54.000Z,0
2017-01-16T01:57:53.979Z,0
2017-01-16T01:58:53.962Z,0
2017-01-16T01:59:53.941Z,0
2017-01-16T02:00:53.920Z,0
2017-01-16T02:01:53.940Z,0
2017-01-16T02:02:53.881Z,0
2017-01-16T02:03:53.858Z,0
2017-01-16T02:04:53.841Z,0
2017-01-16T02:05:53.827Z,0
2017-01-16T02:06:56.950Z,0
2017-01-16T02:07:53.806Z,0
2017-01-16T02:08:53.758Z,0
2017-01-16T02:09:53.737Z,0
2017-01-16T02:10:53.718Z,0
2017-01-16T02:11:53.700Z,0
2017-01-16T02:12:53.680Z,0
2017-01-16T02:13:53.680Z,0
2017-01-16T02:14:53.640Z,0
2017-01-16T02:15:53.620Z,0
2017-01-16T02:16:53.604Z,0
2017-01-16T02:17:53.584Z,0
2017-01-16T02:18:53.563Z,0
2017-01-16T02:19:53.541Z,0
2017-01-16T02:20:53.521Z,0
2017-01-16T02:21:53.504Z,0
2017-01-16T02:22:53.483Z,0
2017-01-16T02:23:53.492Z,0
2017-01-16T02:24:53.443Z,0
2017-01-16T02:25:53.426Z,0
2017-01-16T02:26:53.402Z,0
2017-01-16T02:27:53.412Z,0
2017-01-16T02:28:53.368Z,0
2017-01-16T02:29:53.348Z,0
2017-01-16T02:30:53.333Z,0
2017-01-16T02:31:53.301Z,0
2017-01-16T02:32:53.288Z,0
2017-01-16T02:33:53.289Z,0
2017-01-16T02:34:53.249Z,0
2017-01-16T02:35:53.225Z,0
2017-01-16T02:36:53.206Z,0
2017-01-16T02:37:53.189Z,0
2017-01-16T02:38:53.167Z,0
2017-01-16T02:39:53.143Z,0
2017-01-16T02:40:53.129Z,0
2017-01-16T02:41:53.110Z,0
2017-01-16T02:42:53.087Z,0
2017-01-16T02:43:53.066Z,0
2017-01-16T02:44:53.047Z,0
2017-01-16T02:45:53.028Z,0
2017-01-16T02:46:53.012Z,0
2017-01-16T02:47:52.990Z,0
2017-01-16T02:48:52.970Z,0
2017-01-16T02:49:52.951Z,0
2017-01-16T02:50:52.930Z,0
2017-01-16T02:51:53.136Z,0
2017-01-16T02:52:52.984Z,0
2017-01-16T02:53:52.876Z,0
2017-01-16T02:54:52.851Z,0
2017-01-16T02:55:52.834Z,0
2017-01-16T02:56:52.817Z,0
2017-01-16T02:57:52.794Z,0
2017-01-16T02:58:52.774Z,0
2017-01-16T02:59:52.756Z,0
2017-01-16T03:00:52.732Z,0
2017-01-16T03:01:52.714Z,0
2017-01-16T03:02:52.695Z,0
2017-01-16T03:03:52.673Z,0
2017-01-16T03:04:52.653Z,0
2017-01-16T03:05:52.642Z,0
2017-01-16T03:06:52.612Z,0
2017-01-16T03:07:52.597Z,0
2017-01-16T03:08:52.574Z,0
2017-01-16T03:09:52.560Z,0
2017-01-16T03:10:52.536Z,0
2017-01-16T03:11:52.517Z,0
2017-01-16T03:12:52.499Z,0
2017-01-16T03:13:52.478Z,0
2017-01-16T03:14:52.459Z,0
2017-01-16T03:15:52.837Z,0
2017-01-16T03:16:52.421Z,0
2017-01-16T03:17:52.397Z,0
2017-01-16T03:18:52.383Z,0
2017-01-16T03:19:52.360Z,0
2017-01-16T03:20:52.336Z,0
2017-01-16T03:21:52.319Z,0
2017-01-16T03:22:52.304Z,0
2017-01-16T03:23:52.280Z,0
2017-01-16T03:24:52.258Z,0
2017-01-16T03:25:52.239Z,0
2017-01-16T03:26:52.221Z,0
2017-01-16T03:27:52.203Z,0
2017-01-16T03:28:52.180Z,0
2017-01-16T03:29:52.159Z,0
2017-01-16T03:30:52.164Z,0
2017-01-16T03:31:52.121Z,0
2017-01-16T03:32:52.104Z,0
2017-01-16T03:33:52.077Z,0
2017-01-16T03:34:52.057Z,0
2017-01-16T03:35:52.041Z,0
2017-01-16T03:36:52.019Z,0
2017-01-16T03:37:52.005Z,0
2017-01-16T03:38:51.980Z,0
2017-01-16T03:39:52.386Z,0
2017-01-16T03:40:51.946Z,0
2017-01-16T03:41:51.924Z,0
2017-01-16T03:42:51.898Z,0
2017-01-16T03:43:51.881Z,0
2017-01-16T03:44:51.862Z,0
2017-01-16T03:45:51.848Z,0
2017-01-16T03:46:51.825Z,0
2017-01-16T03:47:51.801Z,0
2017-01-16T03:48:52.180Z,0
2017-01-16T03:49:51.765Z,0
2017-01-16T03:50:51.745Z,0
2017-01-16T03:51:51.723Z,0
2017-01-16T03:52:51.702Z,0
2017-01-16T03:53:51.681Z,0
2017-01-16T03:54:51.663Z,0
2017-01-16T03:55:51.644Z,0
2017-01-16T03:56:51.623Z,0
2017-01-16T03:57:51.602Z,0
2017-01-16T03:58:51.581Z,0
2017-01-16T03:59:51.563Z,0
2017-01-16T04:00:51.545Z,0
2017-01-16T04:01:51.522Z,0
2017-01-16T04:02:51.501Z,0
2017-01-16T04:03:51.484Z,0
2017-01-16T04:04:51.462Z,0
2017-01-16T04:05:51.840Z,0
2017-01-16T04:06:51.421Z,0
2017-01-16T04:07:51.401Z,0
2017-01-16T04:08:51.384Z,0
2017-01-16T04:09:51.362Z,0
2017-01-16T04:10:51.348Z,0
2017-01-16T04:11:51.325Z,0
2017-01-16T04:12:51.304Z,0
2017-01-16T04:13:51.283Z,0
2017-01-16T04:14:51.261Z,0
2017-01-16T04:15:51.248Z,0
2017-01-16T04:16:51.220Z,0
2017-01-16T04:17:51.250Z,0
2017-01-16T04:18:51.181Z,0
2017-01-16T04:19:51.161Z,0
2017-01-16T04:20:51.143Z,0
2017-01-16T04:21:51.121Z,0
2017-01-16T04:22:51.322Z,0
2017-01-16T04:23:51.078Z,0
2017-01-16T04:24:51.064Z,0
2017-01-16T04:25:51.041Z,0
2017-01-16T04:26:51.027Z,0
2017-01-16T04:27:51.052Z,0
2017-01-16T04:28:50.981Z,0
2017-01-16T04:29:50.963Z,0
2017-01-16T04:30:50.945Z,0
2017-01-16T04:31:50.925Z,0
2017-01-16T04:32:50.898Z,0
2017-01-16T04:33:50.909Z,0
2017-01-16T04:34:50.862Z,0
2017-01-16T04:35:50.845Z,0
2017-01-16T04:36:50.824Z,0
2017-01-16T04:37:50.851Z,0
2017-01-16T04:38:50.783Z,0
2017-01-16T04:39:50.766Z,0
2017-01-16T04:40:50.742Z,0
2017-01-16T04:41:50.722Z,0
2017-01-16T04:42:50.700Z,0
2017-01-16T04:43:50.685Z,0
2017-01-16T04:44:50.661Z,0
2017-01-16T04:45:50.644Z,0
2017-01-16T04:46:50.623Z,0
2017-01-16T04:47:50.603Z,0
2017-01-16T04:48:50.581Z,0
2017-01-16T04:49:50.578Z,0
2017-01-16T04:50:50.540Z,0
2017-01-16T04:51:50.522Z,0
2017-01-16T04:52:50.508Z,0
2017-01-16T04:53:50.483Z,0
2017-01-16T04:54:50.465Z,0
2017-01-16T04:55:50.448Z,0
2017-01-16T04:56:50.425Z,0
2017-01-16T04:57:50.403Z,0
2017-01-16T04:58:50.383Z,0
2017-01-16T04:59:50.363Z,0
2017-01-16T05:00:50.346Z,0
2017-01-16T05:01:50.322Z,0
2017-01-16T05:02:50.311Z,0
2017-01-16T05:03:50.283Z,0
2017-01-16T05:04:50.267Z,0
2017-01-16T05:05:50.245Z,0
2017-01-16T05:06:50.226Z,0
2017-01-16T05:07:50.204Z,0
2017-01-16T05:08:50.184Z,0
2017-01-16T05:09:50.171Z,0
2017-01-16T05:10:50.149Z,0
2017-01-16T05:11:50.125Z,0
2017-01-16T05:12:50.109Z,0
2017-01-16T05:13:50.087Z,0
2017-01-16T05:14:50.066Z,0
2017-01-16T05:15:50.049Z,0
2017-01-16T05:16:50.029Z,0
2017-01-16T05:17:50.009Z,0
2017-01-16T05:18:49.988Z,0
2017-01-16T05:19:49.965Z,0
2017-01-16T05:20:49.944Z,0
2017-01-16T05:21:49.929Z,0
2017-01-16T05:22:49.912Z,0
2017-01-16T05:23:49.915Z,0
2017-01-16T05:24:49.865Z,0
2017-01-16T05:25:49.876Z,0
2017-01-16T05:26:49.828Z,0
2017-01-16T05:27:49.807Z,0
2017-01-16T05:28:49.785Z,0
2017-01-16T05:29:49.766Z,0
2017-01-16T05:30:49.753Z,0
2017-01-16T05:31:49.729Z,0
2017-01-16T05:32:49.714Z,0
2017-01-16T05:33:49.685Z,0
2017-01-16T05:34:49.667Z,0
2017-01-16T05:35:49.650Z,0
2017-01-16T05:36:49.623Z,0
2017-01-16T05:37:49.612Z,0
2017-01-16T05:38:49.591Z,0
2017-01-16T05:39:49.579Z,0
2017-01-16T05:40:49.565Z,0
2017-01-16T05:41:49.532Z,0
2017-01-16T05:42:49.507Z,0
2017-01-16T05:43:49.495Z,0
2017-01-16T05:44:49.470Z,0
2017-01-16T05:45:49.448Z,0
2017-01-16T05:46:49.430Z,0
2017-01-16T05:47:49.407Z,0
2017-01-16T05:48:49.389Z,0
2017-01-16T05:49:49.367Z,0
2017-01-16T05:50:49.347Z,0
2017-01-16T05:51:49.326Z,0
2017-01-16T05:52:49.309Z,0
2017-01-16T05:53:49.285Z,0
2017-01-16T05:54:49.271Z,0
2017-01-16T05:55:49.282Z,0
2017-01-16T05:56:49.224Z,0
2017-01-16T05:57:49.206Z,0
2017-01-16T05:58:49.187Z,0
2017-01-16T05:59:49.168Z,0
2017-01-16T06:00:49.149Z,0
2017-01-16T06:01:49.130Z,0
2017-01-16T06:02:49.105Z,0
2017-01-16T06:03:49.085Z,0
2017-01-16T06:04:49.064Z,0
2017-01-16T06:05:49.448Z,0
2017-01-16T06:06:49.025Z,0
2017-01-16T06:07:49.007Z,0
2017-01-16T06:08:48.992Z,0
2017-01-16T06:09:48.965Z,0
2017-01-16T06:10:48.951Z,0
2017-01-16T06:11:48.925Z,0
2017-01-16T06:12:48.909Z,0
2017-01-16T06:13:48.884Z,0
2017-01-16T06:14:49.263Z,0
2017-01-16T06:15:48.844Z,0
2017-01-16T06:16:48.827Z,0
2017-01-16T06:17:48.804Z,0
2017-01-16T06:18:48.782Z,0
2017-01-16T06:19:48.764Z,0
2017-01-16T06:20:48.747Z,0
2017-01-16T06:21:48.731Z,0
2017-01-16T06:22:48.701Z,0
2017-01-16T06:23:48.681Z,0
2017-01-16T06:24:48.662Z,0
2017-01-16T06:25:48.646Z,0
2017-01-16T06:26:48.621Z,0
2017-01-16T06:27:48.600Z,0
2017-01-16T06:28:48.583Z,0
2017-01-16T06:29:48.983Z,0
2017-01-16T06:30:48.580Z,0
2017-01-16T06:31:48.520Z,0
2017-01-16T06:32:48.499Z,0
2017-01-16T06:33:48.479Z,0
2017-01-16T06:34:48.464Z,0
2017-01-16T06:35:48.443Z,4
2017-01-16T06:36:48.423Z,0
2017-01-16T06:37:48.404Z,0
2017-01-16T06:38:48.378Z,4
2017-01-16T06:39:48.358Z,0
2017-01-16T06:40:48.338Z,4
2017-01-16T06:41:48.318Z,4
2017-01-16T06:42:48.297Z,4
2017-01-16T06:43:48.280Z,4
2017-01-16T06:44:48.258Z,4
2017-01-16T06:45:48.240Z,8
2017-01-16T06:46:48.218Z,8
2017-01-16T06:47:48.195Z,12
2017-01-16T06:48:48.176Z,16
2017-01-16T06:49:48.158Z,16
2017-01-16T06:50:48.136Z,20
2017-01-16T06:51:48.120Z,20
2017-01-16T06:52:48.097Z,24
2017-01-16T06:53:48.476Z,28
2017-01-16T06:54:48.054Z,28
2017-01-16T06:55:48.042Z,32
2017-01-16T06:56:48.016Z,36
2017-01-16T06:57:47.996Z,40
2017-01-16T06:58:47.978Z,44
2017-01-16T06:59:47.956Z,48
2017-01-16T07:00:47.932Z,52
2017-01-16T07:01:47.913Z,56
2017-01-16T07:02:47.895Z,60
2017-01-16T07:03:47.874Z,72
2017-01-16T07:04:47.868Z,76
2017-01-16T07:05:47.836Z,80
2017-01-16T07:06:47.814Z,88
2017-01-16T07:07:47.790Z,96
2017-01-16T07:08:47.793Z,96
2017-01-16T07:09:47.755Z,104
2017-01-16T07:10:47.729Z,108
2017-01-16T07:11:47.714Z,116
2017-01-16T07:12:47.694Z,132
2017-01-16T07:13:47.675Z,144
2017-01-16T07:14:47.653Z,152
2017-01-16T07:15:47.648Z,160
2017-01-16T07:16:47.609Z,168
2017-01-16T07:17:47.594Z,168
2017-01-16T07:18:47.571Z,176
2017-01-16T07:19:47.550Z,188
2017-01-16T07:20:47.531Z,200
2017-01-16T07:21:47.507Z,200
2017-01-16T07:22:47.493Z,204
2017-01-16T07:23:47.469Z,212
2017-01-16T07:24:47.447Z,220
2017-01-16T07:25:47.431Z,228
2017-01-16T07:26:47.409Z,240
2017-01-16T07:27:47.393Z,256
2017-01-16T07:28:47.368Z,268
2017-01-16T07:29:47.350Z,280
2017-01-16T07:30:47.326Z,300
2017-01-16T07:31:47.310Z,312
2017-01-16T07:32:47.287Z,320
2017-01-16T07:33:47.274Z,328
2017-01-16T07:34:47.250Z,356
2017-01-16T07:35:47.226Z,348
2017-01-16T07:36:47.207Z,352
2017-01-16T07:37:47.187Z,380
2017-01-16T07:38:47.168Z,384
2017-01-16T07:39:47.147Z,416
2017-01-16T07:40:47.132Z,424
2017-01-16T07:41:47.106Z,444
2017-01-16T07:42:47.088Z,460
2017-01-16T07:43:47.078Z,480
2017-01-16T07:44:47.047Z,488
2017-01-16T07:45:47.031Z,504
2017-01-16T07:46:47.011Z,520
2017-01-16T07:47:46.987Z,532
2017-01-16T07:48:46.968Z,532
2017-01-16T07:49:46.948Z,572
2017-01-16T07:50:46.921Z,572
2017-01-16T07:51:46.916Z,596
2017-01-16T07:52:46.884Z,592
2017-01-16T07:53:46.867Z,620
2017-01-16T07:54:46.848Z,664
2017-01-16T07:55:46.831Z,652
2017-01-16T07:56:46.805Z,644
2017-01-16T07:57:46.785Z,652
2017-01-16T07:58:46.766Z,652
2017-01-16T07:59:46.752Z,676
2017-01-16T08:00:46.732Z,656
2017-01-16T08:01:46.708Z,652
2017-01-16T08:02:46.686Z,704
2017-01-16T08:03:46.666Z,700
2017-01-16T08:04:46.648Z,732
2017-01-16T08:05:46.639Z,764
2017-01-16T08:06:46.606Z,760
2017-01-16T08:07:46.584Z,800
2017-01-16T08:08:46.572Z,820
2017-01-16T08:09:46.553Z,808
2017-01-16T08:10:46.530Z,836
2017-01-16T08:11:46.505Z,844
2017-01-16T08:12:46.487Z,872
2017-01-16T08:13:46.470Z,896
2017-01-16T08:14:46.448Z,924
2017-01-16T08:15:46.427Z,988
2017-01-16T08:16:46.407Z,1028
2017-01-16T08:17:46.385Z,996
2017-01-16T08:18:46.364Z,1040
2017-01-16T08:19:46.344Z,1104
2017-01-16T08:20:46.330Z,1140
2017-01-16T08:21:46.304Z,1168
2017-01-16T08:22:46.943Z,1168
2017-01-16T08:23:46.262Z,1172
2017-01-16T08:24:46.248Z,1240
2017-01-16T08:25:46.230Z,1332
2017-01-16T08:26:46.206Z,1380
2017-01-16T08:27:46.833Z,1384
2017-01-16T08:28:46.167Z,1380
2017-01-16T08:29:46.147Z,1452
2017-01-16T08:30:46.521Z,1496
2017-01-16T08:31:46.109Z,1492
2017-01-16T08:32:46.086Z,1468
2017-01-16T08:33:46.071Z,1488
2017-01-16T08:34:46.046Z,1536
2017-01-16T08:35:46.064Z,1468
2017-01-16T08:36:46.009Z,1524
2017-01-16T08:37:45.990Z,1484
2017-01-16T08:38:45.971Z,1408
2017-01-16T08:39:45.957Z,1476
2017-01-16T08:40:45.933Z,1480
2017-01-16T08:41:45.908Z,1460
2017-01-16T08:42:45.893Z,1496
2017-01-16T08:43:45.870Z,1632
2017-01-16T08:44:45.853Z,1684
2017-01-16T08:45:45.847Z,1684
2017-01-16T08:46:45.816Z,1752
2017-01-16T08:47:45.791Z,1748
2017-01-16T08:48:45.777Z,1820
2017-01-16T08:49:45.752Z,1816
2017-01-16T08:50:45.740Z,1780
2017-01-16T08:51:45.717Z,1824
2017-01-16T08:52:45.697Z,1896
2017-01-16T08:53:45.675Z,1932
2017-01-16T08:54:45.652Z,1996
2017-01-16T08:55:45.634Z,1912
2017-01-16T08:56:45.613Z,1972
2017-01-16T08:57:45.593Z,2032
2017-01-16T08:58:45.574Z,2124
2017-01-16T08:59:45.572Z,2056
2017-01-16T09:00:45.539Z,2032
2017-01-16T09:01:45.517Z,2052
2017-01-16T09:02:45.499Z,2128
2017-01-16T09:03:45.482Z,2076
2017-01-16T09:04:45.458Z,2120
2017-01-16T09:05:45.437Z,2160
2017-01-16T09:06:45.419Z,2124
2017-01-16T09:07:45.399Z,2132
2017-01-16T09:08:45.379Z,2140
2017-01-16T09:09:45.359Z,2088
2017-01-16T09:10:45.345Z,2084
2017-01-16T09:11:45.332Z,2076
2017-01-16T09:12:45.304Z,2048
2017-01-16T09:13:45.284Z,2120
2017-01-16T09:14:45.263Z,2164
2017-01-16T09:15:45.244Z,2288
2017-01-16T09:16:45.227Z,2420
2017-01-16T09:17:45.206Z,2336
2017-01-16T09:18:45.191Z,2368
2017-01-16T09:19:45.166Z,2588
2017-01-16T09:20:45.146Z,2608
2017-01-16T09:21:45.128Z,2516
2017-01-16T09:22:45.109Z,2504
2017-01-16T09:23:45.091Z,2524
2017-01-16T09:24:45.072Z,2484
2017-01-16T09:25:45.454Z,2600
2017-01-16T09:26:45.032Z,2620
2017-01-16T09:27:45.013Z,2560
2017-01-16T09:28:45.001Z,2444
2017-01-16T09:29:44.980Z,2420
2017-01-16T09:30:44.954Z,2356
2017-01-16T09:31:44.934Z,2416
2017-01-16T09:32:44.915Z,2352
2017-01-16T09:33:44.896Z,2372
2017-01-16T09:34:44.880Z,2372
2017-01-16T09:35:44.859Z,2380
2017-01-16T09:36:44.840Z,2396
2017-01-16T09:37:44.824Z,2316
2017-01-16T09:38:44.802Z,2432
2017-01-16T09:39:44.782Z,2340
2017-01-16T09:40:44.764Z,2240
2017-01-16T09:41:44.746Z,2220
2017-01-16T09:42:44.740Z,2392
2017-01-16T09:43:44.706Z,2420
2017-01-16T09:44:44.685Z,2396
2017-01-16T09:45:44.675Z,2472
2017-01-16T09:46:44.647Z,2488
2017-01-16T09:47:44.629Z,2440
2017-01-16T09:48:44.609Z,2460
2017-01-16T09:49:44.593Z,2456
2017-01-16T09:50:44.577Z,2464
2017-01-16T09:51:44.558Z,2548
2017-01-16T09:52:44.536Z,2556
2017-01-16T09:53:44.515Z,2576
2017-01-16T09:54:44.499Z,2608
2017-01-16T09:55:44.476Z,2580
2017-01-16T09:56:44.460Z,2632
2017-01-16T09:57:44.443Z,2556
2017-01-16T09:58:44.423Z,2556
2017-01-16T09:59:44.402Z,2496
2017-01-16T10:00:44.382Z,2520
2017-01-16T10:01:44.369Z,2488
2017-01-16T10:02:44.346Z,2480
2017-01-16T10:03:44.329Z,2460
2017-01-16T10:04:44.319Z,2452
2017-01-16T10:05:44.289Z,2544
2017-01-16T10:06:44.272Z,2660
2017-01-16T10:07:44.250Z,2720
2017-01-16T10:08:44.231Z,2720
2017-01-16T10:09:44.208Z,2764
2017-01-16T10:10:44.193Z,2748
2017-01-16T10:11:44.175Z,2788
2017-01-16T10:12:44.155Z,2676
2017-01-16T10:13:44.151Z,2688
2017-01-16T10:14:44.115Z,2660
2017-01-16T10:15:44.096Z,2732
2017-01-16T10:16:44.086Z,2880
2017-01-16T10:17:44.063Z,2916
2017-01-16T10:18:44.044Z,2956
2017-01-16T10:19:44.025Z,2988
2017-01-16T10:20:44.003Z,3112
2017-01-16T10:21:43.989Z,3096
2017-01-16T10:22:43.993Z,3188
2017-01-16T10:23:43.950Z,3432
2017-01-16T10:24:43.932Z,3368
2017-01-16T10:25:43.909Z,3232
2017-01-16T10:26:43.890Z,3176
2017-01-16T10:27:43.880Z,3228
2017-01-16T10:28:43.855Z,3328
2017-01-16T10:29:43.832Z,3584
2017-01-16T10:30:43.821Z,3696
2017-01-16T10:31:43.794Z,3852
2017-01-16T10:32:43.783Z,3964
2017-01-16T10:33:43.760Z,3880
2017-01-16T10:34:43.741Z,4164
2017-01-16T10:35:43.720Z,4228
2017-01-16T10:36:43.703Z,4208
2017-01-16T10:37:43.696Z,3880
2017-01-16T10:38:43.672Z,3808
2017-01-16T10:39:43.650Z,3624
2017-01-16T10:40:43.626Z,3544
2017-01-16T10:41:43.608Z,3660
2017-01-16T10:42:43.591Z,3608
2017-01-16T10:43:43.573Z,3656
2017-01-16T10:44:43.552Z,3672
2017-01-16T10:45:43.555Z,3508
2017-01-16T10:46:43.529Z,3396
2017-01-16T10:47:43.498Z,3100
2017-01-16T10:48:43.480Z,3168
2017-01-16T10:49:43.462Z,3296
2017-01-16T10:50:43.446Z,3240
2017-01-16T10:51:43.436Z,3348
2017-01-16T10:52:43.405Z,3288
2017-01-16T10:53:43.388Z,3320
2017-01-16T10:54:43.382Z,3300
2017-01-16T10:55:43.352Z,3492
2017-01-16T10:56:43.333Z,3504
2017-01-16T10:57:43.311Z,3376
2017-01-16T10:58:43.294Z,3320
2017-01-16T10:59:43.274Z,3324
2017-01-16T11:00:43.256Z,3260
2017-01-16T11:01:43.238Z,3084
2017-01-16T11:02:43.219Z,3124
2017-01-16T11:03:43.197Z,3196
2017-01-16T11:04:43.182Z,3288
2017-01-16T11:05:43.167Z,3268
2017-01-16T11:06:43.142Z,3044
2017-01-16T11:07:43.122Z,2984
2017-01-16T11:08:43.104Z,2908
2017-01-16T11:09:43.084Z,2756
2017-01-16T11:10:43.069Z,2660
2017-01-16T11:11:43.066Z,2536
2017-01-16T11:12:43.030Z,2608
2017-01-16T11:13:43.012Z,2552
2017-01-16T11:14:42.991Z,2540
2017-01-16T11:15:42.972Z,2544
2017-01-16T11:16:42.951Z,2588
2017-01-16T11:17:42.936Z,2828
2017-01-16T11:18:42.918Z,2964
2017-01-16T11:19:42.900Z,2912
2017-01-16T11:20:42.878Z,2900
2017-01-16T11:21:42.859Z,2836
2017-01-16T11:22:42.841Z,2780
2017-01-16T11:23:42.819Z,2704
2017-01-16T11:24:42.802Z,2748
2017-01-16T11:25:42.787Z,2696
2017-01-16T11:26:42.763Z,2740
2017-01-16T11:27:42.746Z,2788
2017-01-16T11:28:42.727Z,2720
2017-01-16T11:29:42.704Z,2700
2017-01-16T11:30:42.688Z,2644
2017-01-16T11:31:42.672Z,2584
2017-01-16T11:32:42.660Z,2512
2017-01-16T11:33:42.631Z,2596
2017-01-16T11:34:42.616Z,2656
2017-01-16T11:35:42.592Z,2748
2017-01-16T11:36:42.572Z,2820
2017-01-16T11:37:42.553Z,2824
2017-01-16T11:38:42.545Z,2684
2017-01-16T11:39:42.913Z,2488
2017-01-16T11:40:42.498Z,2404
2017-01-16T11:41:42.475Z,2392
2017-01-16T11:42:42.458Z,2388
2017-01-16T11:43:42.436Z,2380
2017-01-16T11:44:42.417Z,2576
2017-01-16T11:45:42.401Z,2780
2017-01-16T11:46:42.379Z,2840
2017-01-16T11:47:42.364Z,2784
2017-01-16T11:48:42.347Z,2784
2017-01-16T11:49:42.325Z,2828
2017-01-16T11:50:42.303Z,2612
2017-01-16T11:51:42.286Z,2556
2017-01-16T11:52:42.265Z,2548
2017-01-16T11:53:42.245Z,2560
2017-01-16T11:54:42.229Z,2688
2017-01-16T11:55:42.213Z,2808
2017-01-16T11:56:42.190Z,2924
2017-01-16T11:57:42.169Z,3244
2017-01-16T11:58:42.151Z,3496
2017-01-16T11:59:42.133Z,3628
2017-01-16T12:00:42.134Z,3632
2017-01-16T12:01:42.094Z,3160
2017-01-16T12:02:42.076Z,3028
2017-01-16T12:03:42.058Z,2896
2017-01-16T12:04:42.040Z,2680
2017-01-16T12:05:42.026Z,2336
2017-01-16T12:06:42.006Z,2292
2017-01-16T12:07:41.983Z,2504
2017-01-16T12:08:41.959Z,2588
2017-01-16T12:09:41.944Z,2440
2017-01-16T12:10:41.953Z,2172
2017-01-16T12:11:41.908Z,2204
2017-01-16T12:12:41.884Z,2244
2017-01-16T12:13:41.874Z,2192
2017-01-16T12:14:42.767Z,2312
2017-01-16T12:15:41.830Z,2576
2017-01-16T12:16:41.824Z,2496
2017-01-16T12:17:41.793Z,2216
2017-01-16T12:18:41.773Z,2204
2017-01-16T12:19:41.758Z,2044
2017-01-16T12:20:41.733Z,2144
2017-01-16T12:21:41.718Z,2524
2017-01-16T12:22:41.694Z,2644
2017-01-16T12:23:41.678Z,2992
2017-01-16T12:24:41.665Z,3596
2017-01-16T12:25:41.639Z,3900
2017-01-16T12:26:41.620Z,3336
2017-01-16T12:27:41.600Z,3268
2017-01-16T12:28:41.583Z,3732
2017-01-16T12:29:41.561Z,3584
2017-01-16T12:30:41.543Z,3120
2017-01-16T12:31:41.522Z,2888
2017-01-16T12:32:41.507Z,2900
2017-01-16T12:33:41.487Z,2940
2017-01-16T12:34:41.471Z,2676
2017-01-16T12:35:41.456Z,2552
2017-01-16T12:36:41.434Z,2560
2017-01-16T12:37:41.408Z,2644
2017-01-16T12:38:41.421Z,2892
2017-01-16T12:39:41.376Z,3180
2017-01-16T12:40:41.356Z,3068
2017-01-16T12:41:41.339Z,3004
2017-01-16T12:42:41.322Z,3060
2017-01-16T12:43:41.300Z,3624
2017-01-16T12:44:41.281Z,4236
2017-01-16T12:45:41.260Z,4800
2017-01-16T12:46:41.239Z,4784
2017-01-16T12:47:41.221Z,4668
2017-01-16T12:48:41.202Z,4212
2017-01-16T12:49:41.186Z,3856
2017-01-16T12:50:41.169Z,3560
2017-01-16T12:51:41.153Z,2960
2017-01-16T12:52:41.129Z,2656
2017-01-16T12:53:41.109Z,2492
2017-01-16T12:54:41.094Z,2504
2017-01-16T12:55:41.072Z,2552
2017-01-16T12:56:41.067Z,2564
2017-01-16T12:57:41.032Z,2464
2017-01-16T12:58:41.014Z,2448
2017-01-16T12:59:40.999Z,2544
2017-01-16T13:00:40.980Z,2624
2017-01-16T13:01:40.959Z,2664
2017-01-16T13:02:40.940Z,2752
2017-01-16T13:03:40.922Z,2640
2017-01-16T13:04:40.902Z,2620
2017-01-16T13:05:40.888Z,2656
2017-01-16T13:06:40.870Z,2496
2017-01-16T13:07:40.846Z,2520
2017-01-16T13:08:40.836Z,2340
2017-01-16T13:09:40.810Z,2476
2017-01-16T13:10:40.787Z,2556
2017-01-16T13:11:40.768Z,2440
2017-01-16T13:12:40.758Z,2328
2017-01-16T13:13:40.760Z,2184
2017-01-16T13:14:40.712Z,2148
2017-01-16T13:15:40.699Z,1904
2017-01-16T13:16:40.678Z,2044
2017-01-16T13:17:40.654Z,2308
2017-01-16T13:18:40.640Z,2316
2017-01-16T13:19:40.619Z,2196
2017-01-16T13:20:40.602Z,2212
2017-01-16T13:21:40.587Z,2196
2017-01-16T13:22:40.567Z,2144
2017-01-16T13:23:40.548Z,2136
2017-01-16T13:24:40.529Z,2156
2017-01-16T13:25:40.505Z,2028
2017-01-16T13:26:40.489Z,1848
2017-01-16T13:27:40.467Z,1912
2017-01-16T13:28:40.449Z,1872
2017-01-16T13:29:40.431Z,1820
2017-01-16T13:30:40.424Z,1776
2017-01-16T13:31:40.399Z,1864
2017-01-16T13:32:40.373Z,1900
2017-01-16T13:33:40.355Z,1860
2017-01-16T13:34:40.338Z,1804
2017-01-16T13:35:40.318Z,1764
2017-01-16T13:36:40.305Z,1632
2017-01-16T13:37:40.278Z,1616
2017-01-16T13:38:40.260Z,1576
2017-01-16T13:39:40.238Z,1592
2017-01-16T13:40:40.248Z,1576
2017-01-16T13:41:40.205Z,1544
2017-01-16T13:42:40.189Z,1512
2017-01-16T13:43:40.169Z,1380
2017-01-16T13:44:40.154Z,1400
2017-01-16T13:45:40.128Z,1276
2017-01-16T13:46:40.111Z,1228
2017-01-16T13:47:40.094Z,1180
2017-01-16T13:48:40.072Z,1252
2017-01-16T13:49:40.061Z,1296
2017-01-16T13:50:40.042Z,1304
2017-01-16T13:51:40.013Z,1304
2017-01-16T13:52:40.000Z,1324
2017-01-16T13:53:39.976Z,1316
2017-01-16T13:54:39.959Z,1276
2017-01-16T13:55:39.934Z,1244
2017-01-16T13:56:39.918Z,1280
2017-01-16T13:57:39.919Z,1188
2017-01-16T13:58:40.274Z,1228
2017-01-16T13:59:39.860Z,1172
2017-01-16T14:00:39.847Z,1140
2017-01-16T14:01:39.823Z,1076
2017-01-16T14:02:39.814Z,1036